Time;durP1;ratioP1;P1;durP2;ratioP2;P2;SDS_P1;SDS_P2;PMS_P1;PMS_P2;Temp;Humidity;BMP_temperature;BMP_pressure;BME280_temperature;BME280_humidity;BME280_pressure;Samples;Min_cycle;Max_cycle;Signal;HPM_P1;HPM_P2
2023/10/17 00:01:19;;;;;;;42.85;3.20;;;;;;;22.25;54.80;99933.41;7315852;19;129027;-37
2023/10/17 00:03:45;;;;;;;53.83;3.80;;;;;;;22.21;55.01;99942.50;7312751;19;129092;-39
2023/10/17 00:06:17;;;;;;;47.45;3.50;;;;;;;22.17;55.94;99930.63;7315179;19;130309;-36
2023/10/17 00:08:44;;;;;;;22.55;2.30;;;;;;;22.13;56.09;99939.75;7312854;19;129422;-38
2023/10/17 00:11:22;;;;;;;27.35;2.17;;;;;;;22.16;56.08;99936.84;7317461;19;129141;-37
2023/10/17 00:13:59;;;;;;;45.95;3.50;;;;;;;22.17;56.71;99935.88;7315063;19;129251;-38
2023/10/17 00:16:30;;;;;;;29.55;2.45;;;;;;;22.16;57.09;99929.00;7315644;19;129521;-36
2023/10/17 00:18:57;;;;;;;55.63;3.85;;;;;;;22.17;56.28;99936.72;7312310;19;130433;-35
2023/10/17 00:21:23;;;;;;;18.15;1.73;;;;;;;22.18;56.74;99932.31;7315891;19;128928;-38
2023/10/17 00:23:52;;;;;;;53.70;3.77;;;;;;;22.16;57.08;99926.38;7311674;19;129096;-37
2023/10/17 00:26:18;;;;;;;44.25;3.42;;;;;;;22.15;57.20;99927.34;7315352;19;130207;-38
2023/10/17 00:28:46;;;;;;;84.27;5.70;;;;;;;22.19;57.06;99923.47;7312260;19;131732;-37
2023/10/17 00:31:12;;;;;;;30.88;2.45;;;;;;;22.17;57.22;99922.78;7315609;19;129788;-37
2023/10/17 00:33:41;;;;;;;27.73;2.23;;;;;;;22.16;56.61;99918.50;7315678;19;128984;-35
2023/10/17 00:36:11;;;;;;;27.70;2.25;;;;;;;22.15;57.35;99922.09;7315382;19;130273;-37
2023/10/17 00:38:42;;;;;;;35.17;2.78;;;;;;;22.13;57.03;99914.34;7314133;19;130375;-37
2023/10/17 00:41:08;;;;;;;31.38;2.58;;;;;;;22.15;57.35;99916.88;7312959;19;128934;-36
2023/10/17 00:43:35;;;;;;;24.73;2.00;;;;;;;22.16;56.81;99915.91;7314228;19;128840;-37
2023/10/17 00:46:00;;;;;;;53.10;3.35;;;;;;;22.08;55.91;99913.94;7314586;19;130622;-38
2023/10/17 00:48:27;;;;;;;29.75;2.33;;;;;;;22.11;54.62;99918.94;7314811;19;129136;-36
2023/10/17 00:51:06;;;;;;;54.28;3.65;;;;;;;22.19;53.72;99913.84;7314383;19;128948;-38
2023/10/17 00:53:32;;;;;;;28.88;2.35;;;;;;;22.23;54.58;99917.03;7314281;19;129289;-38
2023/10/17 00:55:57;;;;;;;49.23;3.67;;;;;;;22.18;54.83;99913.97;7313635;19;131444;-38
2023/10/17 00:58:24;;;;;;;35.70;2.40;;;;;;;22.16;56.23;99916.72;7313738;19;129190;-37
2023/10/17 01:00:54;;;;;;;41.97;3.22;;;;;;;22.04;56.12;99893.41;7311214;19;128922;-38
2023/10/17 01:03:20;;;;;;;35.47;2.78;;;;;;;22.17;56.54;99917.53;7312695;19;129093;-38
2023/10/17 01:05:57;;;;;;;;;;;;;;;22.17;57.44;99921.00;7313888;19;130986;-38
2023/10/17 01:08:37;;;;;;;31.52;2.53;;;;;;;22.16;56.13;99918.50;7313559;19;130419;-37
2023/10/17 01:11:08;;;;;;;25.70;2.25;;;;;;;22.17;56.32;99914.91;7312051;19;129489;-36
2023/10/17 01:13:37;;;;;;;21.08;1.77;;;;;;;22.14;56.93;99916.03;7315049;19;129594;-38
2023/10/17 01:16:07;;;;;;;42.33;3.00;;;;;;;22.11;56.56;99918.09;7311387;19;130070;-40
2023/10/17 01:18:34;;;;;;;30.63;2.25;;;;;;;22.10;56.81;99909.41;7313700;19;130428;-38
2023/10/17 01:20:59;;;;;;;;;;;;;;;22.14;58.54;99915.19;7313924;19;128863;-38
2023/10/17 01:23:26;;;;;;;39.28;2.85;;;;;;;22.12;57.24;99927.59;7312929;19;129223;-36
2023/10/17 01:25:51;;;;;;;;;;;;;;;22.16;58.17;99937.69;7312475;19;131472;-38
2023/10/17 01:28:17;;;;;;;33.65;2.63;;;;;;;22.14;57.39;99920.44;7314203;19;131129;-38
2023/10/17 01:30:42;;;;;;;66.00;4.63;;;;;;;22.03;57.52;99907.47;7310307;19;129193;-38
2023/10/17 01:33:08;;;;;;;23.92;1.85;;;;;;;22.11;56.90;99920.72;7313980;19;129054;-38
2023/10/17 01:35:33;;;;;;;17.47;1.60;;;;;;;22.12;57.29;99927.59;7313784;19;130835;-38
2023/10/17 01:37:59;;;;;;;62.78;4.65;;;;;;;22.02;55.04;99922.34;7310761;19;129267;-38
2023/10/17 01:40:26;;;;;;;38.22;2.75;;;;;;;22.12;53.79;99919.72;7311571;19;128845;-38
2023/10/17 01:42:52;;;;;;;45.13;3.20;;;;;;;22.26;54.11;99919.34;7311287;19;129180;-38
2023/10/17 01:45:25;;;;;;;40.10;2.90;;;;;;;22.21;54.86;99916.31;7313708;19;130283;-37
2023/10/17 01:47:51;;;;;;;69.90;4.97;;;;;;;22.16;55.45;99913.28;7311222;19;129871;-38
2023/10/17 01:50:18;;;;;;;41.67;2.95;;;;;;;22.15;55.77;99916.88;7310859;19;128985;-38
2023/10/17 01:52:45;;;;;;;32.08;2.47;;;;;;;22.14;56.11;99912.56;7310287;19;129444;-37
2023/10/17 01:55:13;;;;;;;16.77;1.67;;;;;;;22.13;56.41;99909.13;7313720;19;130310;-37
2023/10/17 01:57:40;;;;;;;30.60;2.35;;;;;;;22.11;57.02;99905.84;7311922;19;131147;-36
2023/10/17 02:00:16;;;;;;;35.17;2.47;;;;;;;22.12;56.84;99898.78;7308801;19;128941;-37
2023/10/17 02:02:42;;;;;;;42.20;2.85;;;;;;;22.12;57.17;99891.78;7312362;19;129034;-37
2023/10/17 02:05:12;;;;;;;24.00;1.98;;;;;;;22.13;57.03;99895.22;7313509;19;130197;-39
2023/10/17 02:07:38;;;;;;;49.47;3.35;;;;;;;22.11;56.65;99890.13;7311604;19;130417;-40
2023/10/17 02:10:07;;;;;;;56.40;3.90;;;;;;;22.14;57.03;99896.88;7306118;19;129622;-38
2023/10/17 02:12:33;;;;;;;40.17;2.78;;;;;;;22.14;57.26;99897.69;7311279;19;130704;-40
2023/10/17 02:15:00;;;;;;;27.37;2.43;;;;;;;22.09;57.63;99897.28;7312513;19;131075;-40
2023/10/17 02:17:26;;;;;;;34.50;2.70;;;;;;;22.12;56.80;99891.78;7312102;19;131043;-37
2023/10/17 02:19:53;;;;;;;42.33;2.97;;;;;;;22.12;57.17;99886.53;7310028;19;128937;-39
2023/10/17 02:22:19;;;;;;;33.88;2.42;;;;;;;22.12;57.29;99885.69;7311067;19;129149;-39
2023/10/17 02:24:44;;;;;;;52.33;3.53;;;;;;;22.13;57.47;99892.59;7308186;19;129076;-39
2023/10/17 02:27:11;;;;;;;25.40;1.90;;;;;;;22.11;57.49;99894.53;7311950;19;129270;-40
2023/10/17 02:29:41;;;;;;;33.75;2.45;;;;;;;22.02;54.78;99890.91;7308544;19;129300;-39
2023/10/17 02:32:12;;;;;;;8.90;1.15;;;;;;;22.11;53.84;99895.34;7311335;19;128935;-39
2023/10/17 02:34:38;;;;;;;27.10;2.25;;;;;;;22.23;54.56;99893.44;7310341;19;131888;-40
2023/10/17 02:37:04;;;;;;;49.00;3.53;;;;;;;22.17;55.00;99893.97;7311418;19;130964;-39
2023/10/17 02:39:29;;;;;;;21.37;1.67;;;;;;;22.14;55.67;99905.56;7309745;19;129180;-40
2023/10/17 02:42:06;;;;;;;65.25;4.60;;;;;;;22.12;55.73;99896.16;7311657;19;129034;-40
2023/10/17 02:44:32;;;;;;;35.70;2.42;;;;;;;22.11;56.28;99900.59;7309268;19;129027;-39
2023/10/17 02:46:58;;;;;;;52.55;3.60;;;;;;;22.11;56.61;99905.00;7310289;19;130254;-40
2023/10/17 02:49:26;;;;;;;40.03;2.77;;;;;;;22.11;57.05;99907.63;7308939;19;129001;-40
2023/10/17 02:51:54;;;;;;;50.45;3.72;;;;;;;22.02;56.89;99895.31;7311430;19;129308;-40
2023/10/17 02:54:19;;;;;;;30.95;2.45;;;;;;;22.08;57.33;99905.28;7310567;19;130220;-34
2023/10/17 02:56:51;;;;;;;23.03;2.07;;;;;;;22.09;57.39;99906.91;7310324;19;129549;-36
2023/10/17 02:59:17;;;;;;;36.80;2.78;;;;;;;22.12;57.23;99911.88;7309339;19;129422;-38
2023/10/17 03:01:43;;;;;;;17.70;1.60;;;;;;;22.11;57.31;99900.59;7311840;19;129136;-40
2023/10/17 03:04:14;;;;;;;25.67;1.97;;;;;;;22.11;56.87;99907.63;7309401;19;129629;-40
2023/10/17 03:06:42;;;;;;;34.50;2.72;;;;;;;22.09;57.58;99897.28;7310297;19;130500;-39
2023/10/17 03:09:16;;;;;;;50.78;3.35;;;;;;;22.00;57.74;99892.03;7305235;19;129051;-39
2023/10/17 03:11:51;;;;;;;64.47;4.40;;;;;;;22.08;57.36;99900.03;7309141;19;131722;-39
2023/10/17 03:14:22;;;;;;;17.00;1.55;;;;;;;22.10;57.70;99898.13;7311223;19;130093;-41
2023/10/17 03:16:54;;;;;;;62.97;4.38;;;;;;;22.11;57.20;99902.38;7308799;19;131295;-40
2023/10/17 03:19:27;;;;;;;40.17;2.88;;;;;;;22.01;55.15;99904.16;7309259;19;129506;-39
2023/10/17 03:21:58;;;;;;;45.50;3.08;;;;;;;22.13;53.62;99897.84;7308799;19;129427;-38
2023/10/17 03:24:38;;;;;;;21.95;1.70;;;;;;;22.24;55.24;99900.31;7315777;19;129294;-40
2023/10/17 03:27:04;;;;;;;66.53;4.35;;;;;;;22.15;55.16;99901.97;7315966;19;130446;-37
2023/10/17 03:29:34;;;;;;;23.10;1.67;;;;;;;22.01;56.10;99883.22;7316093;19;129014;-38
2023/10/17 03:32:13;;;;;;;58.28;3.67;;;;;;;22.09;55.97;99902.50;7315412;19;128816;-40
2023/10/17 03:34:44;;;;;;;28.95;2.22;;;;;;;22.12;56.43;99904.03;7317160;19;131393;-39
2023/10/17 03:40:15;;;;;;;38.28;2.63;;;;;;;22.08;57.32;99895.59;7315190;19;129333;-39
2023/10/17 03:45:23;;;;;;;61.35;4.18;;;;;;;22.09;57.16;99891.22;7316014;19;129249;-39
2023/10/17 03:48:04;;;;;;;29.13;2.22;;;;;;;22.08;57.49;99892.19;7316793;19;131092;-40
2023/10/17 03:53:04;;;;;;;24.88;2.20;;;;;;;22.10;56.99;99887.66;7316179;19;129198;-39
2023/10/17 03:55:31;;;;;;;25.33;1.90;;;;;;;22.10;57.23;99879.78;7317612;19;130868;-40
2023/10/17 03:57:59;;;;;;;77.60;5.35;;;;;;;22.09;57.37;99876.34;7315685;19;130659;-38
2023/10/17 04:00:25;;;;;;;34.60;2.67;;;;;;;22.09;57.21;99888.59;7312779;19;132278;-39
2023/10/17 04:02:51;;;;;;;20.27;1.57;;;;;;;22.09;57.82;99896.44;7317309;19;128986;-39
2023/10/17 04:05:18;;;;;;;49.40;3.20;;;;;;;22.06;56.98;99891.47;7314200;19;129600;-39
2023/10/17 04:07:43;;;;;;;35.78;2.60;;;;;;;22.09;57.37;99889.44;7316177;19;130519;-39
2023/10/17 04:12:48;;;;;;;21.85;1.75;;;;;;;22.11;53.95;99895.34;7316668;19;129042;-40
2023/10/17 04:15:18;;;;;;;53.72;3.33;;;;;;;22.19;54.88;99894.66;7314346;19;130349;-40
2023/10/17 04:17:46;;;;;;;46.80;3.13;;;;;;;22.14;56.05;99894.25;7315543;19;130556;-40
2023/10/17 04:20:11;;;;;;;46.00;3.10;;;;;;;22.10;56.42;99898.94;7313263;19;129291;-40
2023/10/17 04:22:43;;;;;;;32.33;2.27;;;;;;;22.08;56.34;99894.81;7316163;19;129651;-39
2023/10/17 04:27:59;;;;;;;60.03;3.85;;;;;;;22.08;57.02;99892.19;7312641;19;129397;-38
2023/10/17 04:31:10;;;;;;;25.40;1.90;;;;;;;22.09;56.91;99891.22;7313466;19;129018;-39
2023/10/17 04:33:13;;;;;;;46.85;3.00;;;;;;;22.11;57.04;99895.34;7312982;19;129193;-39
2023/10/17 04:35:53;;;;;;;10.93;1.10;;;;;;;22.11;57.06;99899.75;7315437;19;130860;-38
2023/10/17 04:38:19;;;;;;;54.78;3.53;;;;;;;22.10;56.97;99903.34;7312132;19;130252;-38
2023/10/17 04:40:54;;;;;;;24.67;1.83;;;;;;;22.09;57.14;99906.91;7312488;19;128947;-39
2023/10/17 04:46:08;;;;;;;57.13;3.88;;;;;;;22.11;56.95;99905.00;7310523;19;130023;-39
2023/10/17 04:48:36;;;;;;;46.10;3.10;;;;;;;22.10;57.47;99904.16;7312506;19;130820;-37
2023/10/17 04:51:38;;;;;;;54.38;3.85;;;;;;;22.07;57.02;99900.97;7310639;19;130394;-39
2023/10/17 04:53:55;;;;;;;28.20;2.17;;;;;;;22.09;57.62;99912.16;7311002;19;130800;-39
2023/10/17 04:56:24;;;;;;;37.50;2.75;;;;;;;22.06;57.13;99901.97;7311671;19;133161;-38
2023/10/17 04:59:02;;;;;;;36.17;2.55;;;;;;;21.96;54.93;99907.97;7313369;19;132378;-44
2023/10/17 05:01:37;;;;;;;58.03;3.65;;;;;;;22.08;53.73;99906.09;7309305;19;129030;-39
2023/10/17 05:04:20;;;;;;;61.33;4.15;;;;;;;22.11;54.92;99889.28;7311941;19;129110;-38
2023/10/17 05:07:13;;;;;;;20.88;1.58;;;;;;;22.11;55.90;99910.22;7313905;19;130486;-38
2023/10/17 06:18:08;;;;;;;60.50;4.18;;;;;;;22.05;57.50;99947.44;7310724;19;129274;-37
2023/10/17 06:23:23;;;;;;;57.33;3.80;;;;;;;22.06;57.49;99949.91;7311898;19;129267;-39
2023/10/17 06:28:34;;;;;;;32.97;2.27;;;;;;;22.03;57.44;99959.84;7311090;19;128927;-38
2023/10/17 06:34:00;;;;;;;45.95;3.05;;;;;;;22.05;57.76;99965.78;7309627;19;129168;-39
2023/10/17 06:36:28;;;;;;;44.35;2.88;;;;;;;22.02;57.24;99963.41;7305138;19;130739;-39
2023/10/17 06:38:54;;;;;;;50.53;3.38;;;;;;;22.02;54.53;99963.41;7309654;19;130149;-39
2023/10/17 06:41:37;;;;;;;48.55;3.38;;;;;;;22.10;53.85;99955.72;7308020;19;129396;-37
2023/10/17 06:44:06;;;;;;;34.28;2.38;;;;;;;22.15;55.05;99953.53;7310219;19;131157;-38
2023/10/17 06:46:48;;;;;;;59.20;3.83;;;;;;;22.10;55.49;99958.34;7301661;19;131115;-39
2023/10/17 06:49:46;;;;;;;66.88;4.53;;;;;;;22.06;56.02;99964.78;7304970;19;129225;-39
2023/10/17 06:54:58;;;;;;;31.80;2.30;;;;;;;21.96;57.08;99959.53;7308898;19;130254;-39
2023/10/17 06:57:24;;;;;;;24.05;1.83;;;;;;;22.05;57.07;99969.19;7303691;19;130975;-37
2023/10/17 06:59:52;;;;;;;44.97;2.97;;;;;;;22.06;57.01;99977.88;7313783;19;129040;-38
2023/10/17 07:02:41;;;;;;;47.58;3.50;;;;;;;22.06;56.99;99988.34;7314859;19;129597;-38
2023/10/17 07:05:08;;;;;;;42.85;2.95;;;;;;;22.06;56.70;99985.75;7314599;19;130522;-38
2023/10/17 07:07:40;;;;;;;;;;;;;;;22.08;58.04;99989.06;7315711;19;130622;-37
2023/10/17 07:13:32;;;;;;;179.48;11.13;;;;;;;22.03;58.62;99992.09;7314682;19;129298;-39
2023/10/17 07:16:04;;;;;;;48.75;3.15;;;;;;;22.05;57.03;99979.66;7314679;19;130843;-36
2023/10/17 07:18:43;;;;;;;40.10;2.67;;;;;;;22.06;57.08;99985.75;7314189;19;130247;-38
2023/10/17 07:21:16;;;;;;;45.33;3.22;;;;;;;22.04;57.14;99982.41;7315209;19;129301;-39
2023/10/17 07:23:43;;;;;;;40.70;2.65;;;;;;;22.02;57.88;99990.41;7317195;19;129047;-39
2023/10/17 07:26:24;;;;;;;39.22;2.60;;;;;;;21.95;55.41;99986.66;7315242;19;129997;-38
2023/10/17 07:28:52;;;;;;;35.70;2.50;;;;;;;22.04;54.44;99987.66;7316426;19;130469;-39
2023/10/17 07:31:22;;;;;;;45.63;2.95;;;;;;;22.15;53.97;99987.56;7315377;19;130077;-38
2023/10/17 07:34:07;;;;;;;28.45;2.10;;;;;;;22.11;55.19;99988.78;7318220;19;129525;-39
2023/10/17 07:36:32;;;;;;;33.90;2.40;;;;;;;22.09;55.89;99991.53;7313726;19;130728;-38
2023/10/17 07:38:58;;;;;;;32.20;2.27;;;;;;;22.06;57.41;99990.97;7314397;19;129196;-37
2023/10/17 07:41:38;;;;;;;52.17;3.40;;;;;;;21.91;57.91;99988.72;7316101;19;129500;-39
2023/10/17 07:44:21;;;;;;;23.95;2.20;;;;;;;21.89;58.28;99998.50;7317415;19;129218;-37
2023/10/17 07:46:50;;;;;;;24.63;2.08;;;;;;;22.19;56.83;99986.31;7314354;19;130226;-37
2023/10/17 07:49:26;;;;;;;33.22;2.58;;;;;;;22.76;55.24;99975.94;7314047;19;129701;-38
2023/10/17 07:51:53;;;;;;;42.97;3.17;;;;;;;23.23;53.73;99964.59;7313294;19;129097;-37
2023/10/17 07:54:18;;;;;;;29.83;2.67;;;;;;;23.68;53.09;99984.00;7316104;19;129674;-38
2023/10/17 07:56:50;;;;;;;37.10;3.00;;;;;;;24.08;51.45;99979.28;7313575;19;129539;-39
2023/10/17 07:59:16;;;;;;;48.35;3.53;;;;;;;24.40;51.01;99987.53;7312996;19;130399;-37
2023/10/17 08:01:43;;;;;;;34.33;2.85;;;;;;;24.43;50.74;99984.59;7314039;19;129048;-38
2023/10/17 08:04:18;;;;;;;37.10;2.88;;;;;;;24.44;51.35;99982.81;7314963;19;131000;-37
2023/10/17 08:06:50;;;;;;;54.28;4.05;;;;;;;24.63;50.27;99973.94;7312838;19;130990;-39
2023/10/17 08:09:24;;;;;;;43.38;3.17;;;;;;;24.41;51.44;99985.75;7314055;19;131013;-38
2023/10/17 08:11:54;;;;;;;95.22;6.90;;;;;;;23.87;51.78;99989.16;7312297;19;128869;-37
2023/10/17 08:14:26;;;;;;;37.17;3.10;;;;;;;24.62;50.60;99980.19;7316066;19;128866;-38
2023/10/17 08:16:55;;;;;;;133.27;8.65;;;;;;;24.81;49.45;99986.16;7313497;19;129001;-36
2023/10/17 08:19:23;;;;;;;28.75;2.95;;;;;;;25.07;48.76;99987.03;7313615;19;130451;-38
2023/10/17 08:27:15;;;;;;;73.35;5.03;;;;;;;25.38;48.29;99992.72;7315017;19;129147;-38
2023/10/17 08:29:42;;;;;;;24.13;2.40;;;;;;;25.29;48.74;99998.88;7314151;19;130233;-38
2023/10/17 08:32:38;;;;;;;35.20;3.10;;;;;;;25.29;48.43;99999.69;7315568;19;129942;-39
2023/10/17 08:35:03;;;;;;;26.13;2.42;;;;;;;25.30;48.75;99997.91;7313955;19;129053;-38
2023/10/17 08:37:30;;;;;;;46.03;3.95;;;;;;;25.27;49.01;99987.69;7314938;19;130327;-38
2023/10/17 08:39:59;;;;;;;16.73;1.88;;;;;;;25.39;48.52;100002.25;7312137;19;130411;-38
2023/10/17 08:42:30;;;;;;;45.72;3.88;;;;;;;25.48;48.70;100003.97;7316228;19;129482;-39
2023/10/17 08:45:01;;;;;;;26.67;2.72;;;;;;;25.37;48.79;99994.53;7310270;19;130705;-37
2023/10/17 08:47:30;;;;;;;49.08;4.03;;;;;;;25.42;48.54;99988.81;7313941;19;129647;-39
2023/10/17 08:50:00;;;;;;;34.88;3.00;;;;;;;25.40;48.63;99983.69;7310491;19;130386;-37
2023/10/17 08:52:31;;;;;;;30.67;3.20;;;;;;;24.94;49.96;99994.47;7314241;19;129888;-38
2023/10/17 08:54:56;;;;;;;43.20;3.95;;;;;;;25.05;49.56;99980.28;7313827;19;129043;-39
2023/10/17 08:57:23;;;;;;;32.73;3.17;;;;;;;25.33;49.27;99981.78;7312229;19;129425;-38
2023/10/17 09:04:50;;;;;;;41.97;3.58;;;;;;;25.18;48.84;99954.38;7311814;19;130125;-38
2023/10/17 09:07:31;;;;;;;47.35;3.67;;;;;;;25.22;48.94;99974.16;7313549;19;129232;-38
2023/10/17 09:10:02;;;;;;;28.30;2.60;;;;;;;25.28;49.42;99970.91;7309568;19;130957;-38
2023/10/17 09:12:28;;;;;;;31.90;2.78;;;;;;;24.98;50.17;99969.53;7314638;19;129047;-36
2023/10/17 09:14:56;;;;;;;37.77;2.80;;;;;;;24.85;50.45;99970.91;7312346;19;129064;-37
2023/10/17 09:19:51;;;;;;;33.40;2.90;;;;;;;24.55;51.42;99972.06;7306877;19;129234;-37
2023/10/17 09:22:18;;;;;;;;;;;;;;;24.41;51.97;99962.09;7313749;19;129159;-37
2023/10/17 09:24:48;;;;;;;35.80;3.13;;;;;;;24.38;52.00;99965.81;7310192;19;129588;-38
2023/10/17 09:27:14;;;;;;;36.25;2.83;;;;;;;24.30;52.08;99963.13;7314205;19;130223;-34
2023/10/17 09:29:50;;;;;;;51.40;4.20;;;;;;;24.27;52.33;99968.66;7309210;19;131453;-39
2023/10/17 09:32:36;;;;;;;30.10;2.90;;;;;;;24.32;51.98;99963.78;7312026;19;129175;-38
2023/10/17 09:35:13;;;;;;;28.23;2.55;;;;;;;24.04;52.72;99959.53;7310984;19;129168;-39
2023/10/17 09:37:50;;;;;;;32.38;2.83;;;;;;;24.15;52.71;99961.13;7314227;19;130403;-37
2023/10/17 09:40:26;;;;;;;14.35;1.90;;;;;;;24.48;51.52;99956.06;7310822;19;130557;-37
2023/10/17 09:42:53;;;;;;;29.93;2.63;;;;;;;24.52;51.60;99955.75;7313253;19;128899;-38
2023/10/17 09:45:19;;;;;;;37.38;3.20;;;;;;;24.68;51.13;99959.41;7312519;19;129763;-37
2023/10/17 09:47:45;;;;;;;21.97;2.27;;;;;;;24.73;51.31;99959.78;7314638;19;130844;-35
2023/10/17 09:50:18;;;;;;;36.07;3.03;;;;;;;24.81;51.12;99956.41;7309560;19;130373;-38
2023/10/17 09:52:48;;;;;;;44.00;3.20;;;;;;;24.89;50.88;99952.03;7312732;19;129130;-38
2023/10/17 09:55:17;;;;;;;36.75;2.85;;;;;;;24.92;50.86;99946.47;7311822;19;129268;-38
2023/10/17 09:57:54;;;;;;;46.53;3.45;;;;;;;25.01;50.55;99936.81;7311557;19;130835;-36
2023/10/17 10:00:30;;;;;;;38.88;3.13;;;;;;;25.10;50.15;99943.81;7310696;19;131333;-37
2023/10/17 10:02:57;;;;;;;43.33;3.33;;;;;;;25.10;50.06;99930.66;7310723;19;130593;-39
2023/10/17 10:05:25;;;;;;;35.05;3.00;;;;;;;25.17;49.53;99929.88;7309876;19;129089;-39
2023/10/17 10:07:52;;;;;;;40.03;3.08;;;;;;;25.16;50.38;99930.03;7309856;19;131010;-38
2023/10/17 10:10:42;;;;;;;19.92;2.05;;;;;;;25.15;50.06;99928.38;7310616;19;129094;-38
2023/10/17 10:13:13;;;;;;;44.83;3.30;;;;;;;25.10;50.17;99923.59;7310723;19;129389;-38
2023/10/17 10:15:53;;;;;;;56.00;3.97;;;;;;;24.69;50.98;99915.53;7311864;19;129244;-38
2023/10/17 10:18:34;;;;;;;39.65;3.10;;;;;;;24.40;51.33;99915.72;7311313;19;129003;-38
2023/10/17 10:21:01;;;;;;;48.60;3.75;;;;;;;24.56;51.28;99909.81;7310361;19;131225;-37
2023/10/17 10:23:39;;;;;;;53.03;3.92;;;;;;;24.27;52.43;99889.84;7310918;19;128851;-39
2023/10/17 10:26:19;;;;;;;33.17;2.85;;;;;;;24.27;52.39;99895.09;7310228;19;129074;-38
2023/10/17 10:28:48;;;;;;;45.03;3.35;;;;;;;24.06;53.23;99898.97;7309939;19;129319;-38
2023/10/17 10:31:26;;;;;;;25.90;2.53;;;;;;;23.82;53.45;99881.09;7311601;19;131043;-38
2023/10/17 10:33:52;;;;;;;48.30;3.78;;;;;;;23.88;53.18;99892.84;7319809;19;129351;-38
2023/10/17 10:36:18;;;;;;;;;;;;;;;23.90;53.36;99886.44;7317368;19;129364;-36
2023/10/17 10:38:44;;;;;;;46.45;3.45;;;;;;;23.78;54.40;99895.53;7316499;19;129208;-37
2023/10/17 10:41:13;;;;;;;48.03;3.47;;;;;;;23.66;54.59;99888.81;7317931;19;129640;-38
2023/10/17 10:43:39;;;;;;;29.15;2.65;;;;;;;23.63;54.12;99883.84;7319010;19;129019;-38
2023/10/17 10:46:05;;;;;;;27.83;2.47;;;;;;;23.64;53.92;99882.88;7317426;19;129625;-38
2023/10/17 10:48:32;;;;;;;53.97;4.07;;;;;;;23.61;54.58;99877.91;7316307;19;130668;-38
2023/10/17 10:51:00;;;;;;;34.95;2.83;;;;;;;23.66;54.40;99880.94;7316244;19;131162;-39
2023/10/17 10:53:29;;;;;;;46.22;3.63;;;;;;;23.66;54.09;99867.81;7319342;19;129249;-38
2023/10/17 10:56:01;;;;;;;35.08;2.95;;;;;;;23.74;54.24;99872.31;7319108;19;129029;-38
2023/10/17 10:58:28;;;;;;;39.58;3.33;;;;;;;23.63;53.64;99872.53;7317305;19;130121;-39
2023/10/17 11:00:58;;;;;;;60.45;4.25;;;;;;;23.81;52.95;99866.34;7311065;19;130010;-39
2023/10/17 11:03:24;;;;;;;45.60;3.47;;;;;;;23.76;54.09;99837.06;7315934;19;129193;-37
2023/10/17 11:06:03;;;;;;;23.25;2.42;;;;;;;23.76;53.82;99844.94;7316261;19;129056;-37
2023/10/17 11:08:45;;;;;;;40.45;3.20;;;;;;;23.83;53.90;99848.63;7317928;19;130243;-37
2023/10/17 11:11:10;;;;;;;32.13;2.88;;;;;;;23.82;54.79;99844.34;7318743;19;130974;-37
2023/10/17 11:13:38;;;;;;;35.07;2.83;;;;;;;23.96;54.37;99862.25;7316446;19;129036;-37
2023/10/17 11:16:07;;;;;;;42.17;3.33;;;;;;;23.84;54.40;99839.78;7319075;19;129237;-37
2023/10/17 11:18:34;;;;;;;64.82;4.68;;;;;;;23.91;54.89;99850.53;7314771;19;129443;-36
2023/10/17 11:21:00;;;;;;;23.88;2.60;;;;;;;23.87;55.43;99855.25;7318317;19;130200;-37
2023/10/17 11:23:27;;;;;;;57.17;4.20;;;;;;;23.79;55.10;99846.44;7317043;19;128955;-36
2023/10/17 11:25:53;;;;;;;;;;;;;;;23.70;55.45;99858.66;7316001;19;129124;-38
2023/10/17 11:28:19;;;;;;;27.67;2.53;;;;;;;23.67;56.28;99858.13;7317190;19;129531;-37
2023/10/17 11:30:45;;;;;;;28.63;2.50;;;;;;;23.50;56.68;99840.53;7314870;19;129734;-37
2023/10/17 11:33:14;;;;;;;35.40;2.67;;;;;;;23.45;56.46;99837.53;7317373;19;129005;-37
2023/10/17 11:35:50;;;;;;;53.13;3.83;;;;;;;23.58;57.36;99859.84;7316400;19;129277;-36
2023/10/17 11:38:35;;;;;;;33.63;2.58;;;;;;;23.58;54.61;99859.84;7317069;19;129522;-37
2023/10/17 11:41:05;;;;;;;32.13;2.53;;;;;;;23.63;56.41;99857.59;7317166;19;130303;-37
2023/10/17 11:43:42;;;;;;;52.05;3.70;;;;;;;23.60;56.01;99857.88;7316154;19;129064;-38
2023/10/17 11:46:12;;;;;;;;;;;;;;;23.58;56.16;99844.09;7315626;19;128926;-35
2023/10/17 11:48:44;;;;;;;50.20;3.42;;;;;;;23.67;56.43;99852.88;7314061;19;130215;-37
2023/10/17 11:51:13;;;;;;;14.23;1.58;;;;;;;23.69;56.42;99836.00;7317562;19;130174;-37
2023/10/17 11:54:03;;;;;;;45.03;3.47;;;;;;;23.73;56.39;99840.00;7317249;19;129057;-37
2023/10/17 11:56:31;;;;;;;44.70;3.28;;;;;;;23.75;56.82;99829.34;7316770;19;129726;-37
2023/10/17 11:58:56;;;;;;;43.13;3.03;;;;;;;23.84;55.94;99837.16;7313321;19;131118;-37
2023/10/17 12:01:22;;;;;;;27.50;2.30;;;;;;;23.91;56.55;99826.88;7316706;19;130349;-37
2023/10/17 12:03:51;;;;;;;28.97;2.37;;;;;;;23.94;55.84;99824.78;7317039;19;128805;-36
2023/10/17 12:06:16;;;;;;;119.88;7.30;;;;;;;24.00;56.11;99824.22;7313381;19;128963;-36
2023/10/17 12:08:43;;;;;;;40.50;2.83;;;;;;;24.03;56.49;99823.09;7315623;19;130239;-36
2023/10/17 12:11:09;;;;;;;;;;;;;;;24.02;56.35;99817.03;7316408;19;130444;-36
2023/10/17 12:13:34;;;;;;;51.80;3.78;;;;;;;24.08;55.81;99826.91;7316109;19;129089;-36
2023/10/17 12:16:02;;;;;;;19.07;1.70;;;;;;;24.12;56.19;99827.44;7316943;19;128910;-36
2023/10/17 12:18:27;;;;;;;34.40;2.83;;;;;;;24.12;56.55;99827.44;7314276;19;130108;-36
2023/10/17 12:20:55;;;;;;;45.13;3.30;;;;;;;24.17;56.13;99814.69;7313965;19;130803;-37
2023/10/17 12:23:21;;;;;;;27.65;2.33;;;;;;;24.22;56.14;99820.31;7315773;19;128920;-35
2023/10/17 12:25:46;;;;;;;32.57;2.47;;;;;;;24.23;56.12;99820.16;7314235;19;128839;-35
2023/10/17 12:28:12;;;;;;;14.27;1.63;;;;;;;24.20;56.50;99817.84;7315279;19;130133;-37
2023/10/17 12:30:38;;;;;;;42.60;3.03;;;;;;;24.13;56.40;99814.16;7313710;19;130444;-36
2023/10/17 12:33:05;;;;;;;;;;;;;;;24.06;56.91;99818.38;7314022;19;129829;-37
2023/10/17 12:35:30;;;;;;;40.85;3.15;;;;;;;24.05;57.05;99821.97;7315906;19;129033;-36
2023/10/17 12:38:14;;;;;;;41.57;3.17;;;;;;;23.99;56.80;99817.31;7312419;19;129451;-34
2023/10/17 12:40:41;;;;;;;36.38;2.63;;;;;;;24.01;56.91;99822.44;7313531;19;130465;-37
2023/10/17 12:43:08;;;;;;;25.73;2.00;;;;;;;23.96;56.76;99816.75;7314821;19;129049;-37
2023/10/17 12:45:36;;;;;;;;;;;;;;;23.90;57.80;99817.38;7313507;19;129161;-36
2023/10/17 12:48:01;;;;;;;51.42;4.10;;;;;;;23.89;57.05;99806.03;7313070;19;130169;-37
2023/10/17 12:50:27;;;;;;;39.50;2.87;;;;;;;23.88;57.78;99806.97;7312746;19;129220;-35
2023/10/17 12:52:53;;;;;;;24.73;2.37;;;;;;;23.89;57.97;99811.28;7316428;19;128842;-37
2023/10/17 12:55:21;;;;;;;41.90;2.93;;;;;;;23.93;57.79;99806.56;7311254;19;128914;-36
2023/10/17 12:57:46;;;;;;;37.33;2.78;;;;;;;23.97;57.83;99811.34;7314389;19;129875;-37
2023/10/17 13:00:14;;;;;;;44.13;3.07;;;;;;;24.00;57.59;99803.19;7312858;19;131419;-36
2023/10/17 13:02:41;;;;;;;51.85;3.78;;;;;;;23.89;57.08;99790.28;7315290;19;129016;-36
2023/10/17 13:05:09;;;;;;;28.40;2.20;;;;;;;24.09;57.16;99804.94;7314388;19;129429;-37
2023/10/17 13:07:35;;;;;;;48.65;3.38;;;;;;;24.09;56.80;99807.56;7313196;19;131237;-37
2023/10/17 13:10:01;;;;;;;10.82;1.20;;;;;;;24.22;56.52;99801.91;7312483;19;130373;-38
2023/10/17 13:12:27;;;;;;;28.17;2.17;;;;;;;24.23;56.41;99807.03;7313817;19;128863;-38
2023/10/17 13:14:52;;;;;;;91.27;5.90;;;;;;;24.32;56.76;99807.91;7313006;19;129317;-37
2023/10/17 13:17:18;;;;;;;51.37;3.40;;;;;;;24.34;57.05;99798.09;7307921;19;130472;-35
2023/10/17 13:19:45;;;;;;;63.28;4.22;;;;;;;24.34;56.49;99793.66;7310462;19;129457;-36
2023/10/17 13:22:16;;;;;;;173.93;11.23;;;;;;;24.38;56.37;99795.00;7307941;19;128943;-34
2023/10/17 13:24:43;;;;;;;48.53;3.75;;;;;;;24.44;55.68;99794.38;7308311;19;130086;-37